createdAt,value
2023-03-17T00:01:27.698Z,62.41
2023-03-17T00:03:55.384Z,62.53
2023-03-17T00:06:24.791Z,62.23
2023-03-17T00:08:52.349Z,62.52
2023-03-17T00:11:20.011Z,62.70
2023-03-17T00:13:47.675Z,62.79
2023-03-17T00:16:15.900Z,62.82
2023-03-17T00:18:43.625Z,62.95
2023-03-17T00:21:12.208Z,62.95
2023-03-17T00:23:39.865Z,62.87
2023-03-17T00:26:07.523Z,62.81
2023-03-17T00:28:35.183Z,62.71
2023-03-17T00:31:03.506Z,62.69
2023-03-17T00:33:33.250Z,62.76
2023-03-17T00:36:01.573Z,62.81
2023-03-17T00:38:29.929Z,62.55
2023-03-17T00:40:57.585Z,62.76
2023-03-17T00:43:25.447Z,62.71
2023-03-17T00:45:53.113Z,62.91
2023-03-17T00:48:20.974Z,62.97
2023-03-17T00:50:48.841Z,63.21
2023-03-17T00:53:16.910Z,63.29
2023-03-17T00:55:44.779Z,63.23
2023-03-17T00:58:12.645Z,63.22
2023-03-17T01:00:40.352Z,63.58
2023-03-17T01:03:08.173Z,63.53
2023-03-17T01:05:35.765Z,63.60
2023-03-17T01:08:03.905Z,63.56
2023-03-17T01:10:31.994Z,63.51
2023-03-17T01:12:59.950Z,63.61
2023-03-17T01:15:27.606Z,63.41
2023-03-17T01:17:55.920Z,63.55
2023-03-17T01:20:23.797Z,63.54
2023-03-17T01:22:51.612Z,63.66
2023-03-17T01:25:19.215Z,63.61
2023-03-17T01:27:46.840Z,63.23
2023-03-17T01:30:14.911Z,63.33
2023-03-17T01:32:42.805Z,63.37
2023-03-17T01:35:10.537Z,63.70
2023-03-17T01:37:38.616Z,63.79
2023-03-17T01:40:06.275Z,63.75
2023-03-17T01:42:34.248Z,63.88
2023-03-17T01:45:01.903Z,63.77
2023-03-17T01:47:32.634Z,63.81
2023-03-17T01:50:00.808Z,63.79
2023-03-17T01:52:28.993Z,63.73
2023-03-17T01:54:56.853Z,63.61
2023-03-17T01:57:24.510Z,63.68
2023-03-17T01:59:52.287Z,63.77
2023-03-17T02:02:19.948Z,63.66
2023-03-17T02:04:47.604Z,63.73
2023-03-17T02:07:15.166Z,63.67
2023-03-17T02:09:42.818Z,63.70
2023-03-17T02:12:10.477Z,63.53
2023-03-17T02:14:38.045Z,63.53
2023-03-17T02:17:05.699Z,63.70
2023-03-17T02:19:34.385Z,63.70
2023-03-17T02:22:02.780Z,63.57
2023-03-17T02:24:30.945Z,63.57
2023-03-17T02:26:58.803Z,63.61
2023-03-17T02:29:27.801Z,63.68
2023-03-17T02:31:55.465Z,63.98
2023-03-17T02:34:23.121Z,63.78
2023-03-17T02:36:50.840Z,64.03
2023-03-17T02:39:18.551Z,64.05
2023-03-17T02:41:46.312Z,64.17
2023-03-17T02:44:13.973Z,64.01
2023-03-17T02:46:41.736Z,64.19
2023-03-17T02:49:09.402Z,64.42
2023-03-17T02:51:37.378Z,64.30
2023-03-17T02:54:05.032Z,64.43
2023-03-17T02:56:33.010Z,64.48
2023-03-17T02:59:00.660Z,64.61
2023-03-17T03:01:29.641Z,64.47
2023-03-17T03:03:57.423Z,64.57
2023-03-17T03:06:25.081Z,64.74
2023-03-17T03:08:52.743Z,64.56
2023-03-17T03:11:20.613Z,64.44
2023-03-17T03:13:48.290Z,64.53
2023-03-17T03:16:15.865Z,64.73
2023-03-17T03:18:43.594Z,64.66
2023-03-17T03:21:11.255Z,64.68
2023-03-17T03:23:38.932Z,64.74
2023-03-17T03:26:06.585Z,64.61
2023-03-17T03:28:34.241Z,64.65
2023-03-17T03:31:01.948Z,64.69
2023-03-17T03:33:29.668Z,64.43
2023-03-17T03:35:58.284Z,64.46
2023-03-17T03:38:26.326Z,64.44
2023-03-17T03:40:53.888Z,64.43
2023-03-17T03:43:23.882Z,64.42
2023-03-17T03:45:51.919Z,64.47
2023-03-17T03:48:19.640Z,64.41
2023-03-17T03:50:47.294Z,64.43
2023-03-17T03:53:15.471Z,64.35
2023-03-17T03:55:43.120Z,64.27
2023-03-17T03:58:11.500Z,64.43
2023-03-17T04:00:39.158Z,64.21
2023-03-17T04:03:06.865Z,64.28
2023-03-17T04:05:34.488Z,64.50
2023-03-17T04:08:02.151Z,64.47
2023-03-17T04:10:30.030Z,64.67
2023-03-17T04:12:57.813Z,64.70
2023-03-17T04:15:25.440Z,64.80
2023-03-17T04:17:55.249Z,64.70
2023-03-17T04:20:22.917Z,64.91
2023-03-17T04:22:50.683Z,64.95
2023-03-17T04:25:18.972Z,64.89
2023-03-17T04:27:46.819Z,64.84
2023-03-17T04:30:14.805Z,64.76
2023-03-17T04:32:42.596Z,64.79
2023-03-17T04:35:11.135Z,64.77
2023-03-17T04:37:39.106Z,64.85
2023-03-17T04:40:08.707Z,64.88
2023-03-17T04:42:36.370Z,64.80
2023-03-17T04:45:04.143Z,64.78
2023-03-17T04:47:32.303Z,64.83
2023-03-17T04:50:00.075Z,64.98
2023-03-17T04:52:27.835Z,65.16
2023-03-17T04:54:55.598Z,65.06
2023-03-17T04:57:24.691Z,65.10
2023-03-17T04:59:52.412Z,65.19
2023-03-17T05:02:26.460Z,65.37
2023-03-17T05:04:54.849Z,65.36
2023-03-17T05:07:22.610Z,65.55
2023-03-17T05:09:50.477Z,65.31
2023-03-17T05:12:18.240Z,65.66
2023-03-17T05:14:46.824Z,65.68
2023-03-17T05:17:14.704Z,65.53
2023-03-17T05:19:42.761Z,65.43
2023-03-17T05:22:10.731Z,65.38
2023-03-17T05:24:38.397Z,65.52
2023-03-17T05:27:06.257Z,65.44
2023-03-17T05:29:34.023Z,65.48
2023-03-17T05:32:01.687Z,65.67
2023-03-17T05:34:29.347Z,65.60
2023-03-17T05:36:57.210Z,65.54
2023-03-17T05:39:24.976Z,65.59
2023-03-17T05:41:52.637Z,65.78
2023-03-17T05:44:21.019Z,65.85
2023-03-17T05:46:48.679Z,65.56
2023-03-17T05:49:16.352Z,66.05
2023-03-17T05:51:44.003Z,65.98
2023-03-17T05:54:11.669Z,66.01
2023-03-17T05:56:39.427Z,66.14
2023-03-17T05:59:07.089Z,66.15
2023-03-17T06:01:34.856Z,66.10
2023-03-17T06:04:02.822Z,66.06
2023-03-17T06:06:30.485Z,66.02
2023-03-17T06:08:58.252Z,65.93
2023-03-17T06:11:26.937Z,65.75
2023-03-17T06:13:54.800Z,65.89
2023-03-17T06:16:22.716Z,65.86
2023-03-17T06:18:50.739Z,65.86
2023-03-17T06:21:18.920Z,65.99
2023-03-17T06:23:46.675Z,65.72
2023-03-17T06:26:14.444Z,65.57
2023-03-17T06:28:42.105Z,65.58
2023-03-17T06:31:09.921Z,65.34
2023-03-17T06:33:38.243Z,65.26
2023-03-17T06:36:06.677Z,65.19
2023-03-17T06:38:34.489Z,65.11
2023-03-17T06:41:02.153Z,65.10
2023-03-17T06:43:29.913Z,65.04
2023-03-17T06:45:57.575Z,64.93
2023-03-17T06:48:25.347Z,65.04
2023-03-17T06:50:53.104Z,64.83
2023-03-17T06:53:21.070Z,64.83
2023-03-17T06:55:48.734Z,64.73
2023-03-17T06:58:17.316Z,64.58
2023-03-17T07:00:45.723Z,64.63
2023-03-17T07:03:13.567Z,64.66
2023-03-17T07:05:42.044Z,64.39
2023-03-17T07:08:09.702Z,64.43
2023-03-17T07:10:37.463Z,64.23
2023-03-17T07:13:07.895Z,64.09
2023-03-17T07:15:36.171Z,64.13
2023-03-17T07:18:04.240Z,64.02
2023-03-17T07:20:32.032Z,64.28
2023-03-17T07:22:59.870Z,64.27
2023-03-17T07:25:27.533Z,64.16
2023-03-17T07:27:55.196Z,63.33
2023-03-17T07:30:22.869Z,62.77
2023-03-17T07:32:50.646Z,62.53
2023-03-17T07:35:19.568Z,62.65
2023-03-17T07:37:47.583Z,62.39
2023-03-17T07:40:15.341Z,61.72
2023-03-17T07:42:43.007Z,61.49
2023-03-17T07:45:10.799Z,60.89
2023-03-17T07:47:39.454Z,60.63
2023-03-17T07:50:07.113Z,60.52
2023-03-17T07:52:34.883Z,60.56
2023-03-17T07:55:02.869Z,60.12
2023-03-17T07:57:30.633Z,59.97
2023-03-17T07:59:58.988Z,59.62
2023-03-17T08:02:26.684Z,59.66
2023-03-17T08:04:54.517Z,59.63
2023-03-17T08:07:22.186Z,59.06
2023-03-17T08:09:50.113Z,58.97
2023-03-17T08:12:17.818Z,58.31
2023-03-17T08:14:45.473Z,58.20
2023-03-17T08:17:13.772Z,57.47
2023-03-17T08:19:41.512Z,57.39
2023-03-17T08:22:09.894Z,57.43
2023-03-17T08:24:38.614Z,57.35
2023-03-17T08:27:06.355Z,57.26
2023-03-17T08:29:34.121Z,57.23
2023-03-17T08:32:01.882Z,56.51
2023-03-17T08:34:29.529Z,55.78
2023-03-17T08:36:57.605Z,55.41
2023-03-17T08:39:25.572Z,55.66
2023-03-17T08:41:53.238Z,55.71
2023-03-17T08:44:22.017Z,55.56
2023-03-17T08:46:49.782Z,54.74
2023-03-17T08:49:17.651Z,54.33
2023-03-17T08:51:45.451Z,54.43
2023-03-17T08:54:13.180Z,53.42
2023-03-17T08:56:40.859Z,53.78
2023-03-17T08:59:08.720Z,53.77
2023-03-17T09:01:36.409Z,53.18
2023-03-17T09:04:04.234Z,52.78
2023-03-17T09:06:32.365Z,52.42
2023-03-17T09:09:00.598Z,51.65
2023-03-17T09:11:28.243Z,51.89
2023-03-17T09:13:56.006Z,51.57
2023-03-17T09:16:24.251Z,50.95
2023-03-17T09:18:52.155Z,50.89
2023-03-17T09:21:19.812Z,50.85
2023-03-17T09:23:47.509Z,50.56
2023-03-17T09:26:15.444Z,50.26
2023-03-17T09:28:43.753Z,49.22
2023-03-17T09:31:11.614Z,49.56
2023-03-17T09:33:39.870Z,49.28
2023-03-17T09:36:07.664Z,47.96
2023-03-17T09:38:36.002Z,49.09
2023-03-17T09:41:03.667Z,48.92
2023-03-17T09:43:31.433Z,48.52
2023-03-17T09:45:59.087Z,48.49
2023-03-17T09:48:27.569Z,48.34
2023-03-17T09:50:55.238Z,48.62
2023-03-17T09:53:22.897Z,48.27
2023-03-17T09:55:50.656Z,47.92
2023-03-17T09:58:18.419Z,47.43
2023-03-17T10:00:46.595Z,46.86
2023-03-17T10:03:14.666Z,46.84
2023-03-17T10:05:42.374Z,46.60
2023-03-17T10:08:27.070Z,46.70
2023-03-17T10:10:57.617Z,46.59
2023-03-17T10:13:25.468Z,46.51
2023-03-17T10:15:53.275Z,45.91
2023-03-17T10:18:22.237Z,46.27
2023-03-17T10:20:51.664Z,45.73
2023-03-17T10:23:19.620Z,44.89
2023-03-17T10:25:48.396Z,45.17
2023-03-17T10:28:16.248Z,45.67
2023-03-17T10:30:44.129Z,45.34
2023-03-17T10:33:12.819Z,44.86
2023-03-17T10:35:40.930Z,43.81
2023-03-17T10:38:14.348Z,44.29
2023-03-17T10:40:42.972Z,44.34
2023-03-17T10:43:11.349Z,44.09
2023-03-17T10:45:43.308Z,44.28
2023-03-17T10:48:12.509Z,44.19
2023-03-17T10:50:41.304Z,44.75
2023-03-17T10:53:08.959Z,45.17
2023-03-17T10:55:37.239Z,44.39
2023-03-17T10:58:05.005Z,43.90
2023-03-17T11:00:35.602Z,43.80
2023-03-17T11:03:03.517Z,43.93
2023-03-17T11:05:31.476Z,43.73
2023-03-17T11:07:59.231Z,44.00
2023-03-17T11:10:26.897Z,42.83
2023-03-17T11:12:54.557Z,42.69
2023-03-17T11:15:23.037Z,42.33
2023-03-17T11:17:50.800Z,41.11
2023-03-17T11:20:18.461Z,41.48
2023-03-17T11:22:46.739Z,41.73
2023-03-17T11:25:14.402Z,41.44
2023-03-17T11:27:42.471Z,41.79
2023-03-17T11:30:11.236Z,41.41
2023-03-17T11:32:39.990Z,40.51
2023-03-17T11:35:07.914Z,40.03
2023-03-17T11:37:36.264Z,40.35
2023-03-17T11:40:04.256Z,40.28
2023-03-17T11:42:32.134Z,40.64
2023-03-17T11:44:59.906Z,40.72
2023-03-17T11:47:28.580Z,40.38
2023-03-17T11:49:56.243Z,40.37
2023-03-17T11:52:24.014Z,40.39
2023-03-17T11:54:54.183Z,40.72
2023-03-17T11:57:23.020Z,40.65
2023-03-17T11:59:52.277Z,40.84
2023-03-17T12:02:19.970Z,41.12
2023-03-17T12:04:47.785Z,40.65
2023-03-17T12:07:15.601Z,40.50
2023-03-17T12:09:43.572Z,40.45
2023-03-17T12:12:11.433Z,40.11
2023-03-17T12:14:39.843Z,39.87
2023-03-17T12:17:07.577Z,39.62
2023-03-17T12:19:37.081Z,39.74
2023-03-17T12:22:04.743Z,39.46
2023-03-17T12:24:32.815Z,39.13
2023-03-17T12:27:00.792Z,39.42
2023-03-17T12:29:28.544Z,38.96
2023-03-17T12:31:56.207Z,39.14
2023-03-17T12:34:24.382Z,39.46
2023-03-17T12:36:52.453Z,39.62
2023-03-17T12:39:20.217Z,39.03
2023-03-17T12:41:48.187Z,38.85
2023-03-17T12:44:16.052Z,38.76
2023-03-17T12:46:43.885Z,39.22
2023-03-17T12:49:11.678Z,39.47
2023-03-17T12:51:40.161Z,39.47
2023-03-17T12:54:07.821Z,38.47
2023-03-17T12:56:35.503Z,38.77
2023-03-17T12:59:03.762Z,38.73
2023-03-17T13:01:32.574Z,38.38
2023-03-17T13:04:00.512Z,38.17
2023-03-17T13:06:28.342Z,38.35
2023-03-17T13:08:56.044Z,37.64
2023-03-17T13:11:23.704Z,37.77
2023-03-17T13:13:52.392Z,37.68
2023-03-17T13:16:20.113Z,37.75
2023-03-17T13:18:48.131Z,37.10
2023-03-17T13:21:16.504Z,37.42
2023-03-17T13:23:44.345Z,36.95
2023-03-17T13:26:12.035Z,37.39
2023-03-17T13:28:41.435Z,37.14
2023-03-17T13:31:10.297Z,37.26
2023-03-17T13:33:38.912Z,36.80
2023-03-17T13:36:06.607Z,37.13
2023-03-17T13:38:34.336Z,37.07
2023-03-17T13:41:01.994Z,36.39
2023-03-17T13:43:30.284Z,36.17
2023-03-17T13:45:57.932Z,36.49
2023-03-17T13:48:27.446Z,36.65
2023-03-17T13:50:55.102Z,35.83
2023-03-17T13:53:23.888Z,35.33
2023-03-17T13:55:53.033Z,35.80
2023-03-17T13:58:20.741Z,36.29
2023-03-17T14:00:49.233Z,34.63
2023-03-17T14:03:17.603Z,34.48
2023-03-17T14:05:45.782Z,34.41
2023-03-17T14:08:14.260Z,34.23
2023-03-17T14:10:43.662Z,34.15
2023-03-17T14:13:11.531Z,34.86
2023-03-17T14:15:42.261Z,34.64
2023-03-17T14:18:11.257Z,34.38
2023-03-17T14:20:39.021Z,34.31
2023-03-17T14:23:06.802Z,34.78
2023-03-17T14:25:34.547Z,34.62
2023-03-17T14:28:02.214Z,34.27
2023-03-17T14:30:30.824Z,34.31
2023-03-17T14:32:58.597Z,34.18
2023-03-17T14:35:26.524Z,34.38
2023-03-17T14:37:54.288Z,34.53
2023-03-17T14:40:22.467Z,34.16
2023-03-17T14:42:50.417Z,34.27
2023-03-17T14:45:18.093Z,34.12
2023-03-17T14:47:45.763Z,33.81
2023-03-17T14:50:13.635Z,33.41
2023-03-17T14:52:41.694Z,33.65
2023-03-17T14:55:09.559Z,33.84
2023-03-17T14:57:37.205Z,33.22
2023-03-17T15:00:05.295Z,34.24
2023-03-17T15:02:34.582Z,34.03
2023-03-17T15:05:02.429Z,33.51
2023-03-17T15:07:30.222Z,33.98
2023-03-17T15:09:58.090Z,33.95
2023-03-17T15:12:25.956Z,34.16
2023-03-17T15:14:53.721Z,34.75
2023-03-17T15:17:21.383Z,34.91
2023-03-17T15:19:49.174Z,34.49
2023-03-17T15:22:16.911Z,34.07
2023-03-17T15:24:44.776Z,34.28
2023-03-17T15:27:12.428Z,34.64
2023-03-17T15:29:40.101Z,34.51
2023-03-17T15:32:07.864Z,34.67
2023-03-17T15:34:35.527Z,34.76
2023-03-17T15:37:03.192Z,34.56
2023-03-17T15:39:30.849Z,34.72
2023-03-17T15:41:58.614Z,34.77
2023-03-17T15:44:26.582Z,34.71
2023-03-17T15:46:54.549Z,34.90
2023-03-17T15:49:25.253Z,35.12
2023-03-17T15:51:54.488Z,35.11
2023-03-17T15:54:22.445Z,35.41
2023-03-17T15:56:50.130Z,35.88
2023-03-17T15:59:17.885Z,35.44
2023-03-17T16:01:45.785Z,35.82
2023-03-17T16:04:13.881Z,36.25
2023-03-17T16:06:42.088Z,35.92
2023-03-17T16:09:09.749Z,36.35
2023-03-17T16:11:39.403Z,36.37
2023-03-17T16:14:08.013Z,36.84
2023-03-17T16:16:36.109Z,37.06
2023-03-17T16:19:05.006Z,37.01
2023-03-17T16:21:32.659Z,37.05
2023-03-17T16:24:00.427Z,37.29
2023-03-17T16:26:28.229Z,37.62
2023-03-17T16:28:56.055Z,37.95
2023-03-17T16:31:24.057Z,37.76
2023-03-17T16:33:52.950Z,38.12
2023-03-17T16:36:20.887Z,38.16
2023-03-17T16:38:49.368Z,38.55
2023-03-17T16:41:17.335Z,39.10
2023-03-17T16:43:45.202Z,39.01
2023-03-17T16:46:12.902Z,39.47
2023-03-17T16:48:40.732Z,39.71
2023-03-17T16:51:08.699Z,40.10
2023-03-17T16:53:36.467Z,40.22
2023-03-17T16:56:04.230Z,39.94
2023-03-17T16:58:31.905Z,40.11
2023-03-17T17:01:02.320Z,40.27
2023-03-17T17:03:30.087Z,40.29
2023-03-17T17:05:57.848Z,40.32
2023-03-17T17:08:25.612Z,40.53
2023-03-17T17:10:53.373Z,40.34
2023-03-17T17:13:21.041Z,40.73
2023-03-17T17:15:48.840Z,40.50
2023-03-17T17:18:16.670Z,40.24
2023-03-17T17:20:44.326Z,40.63
2023-03-17T17:23:11.998Z,40.79
2023-03-17T17:25:39.754Z,41.11
2023-03-17T17:28:07.418Z,41.12
2023-03-17T17:30:35.077Z,41.53
2023-03-17T17:33:02.877Z,41.91
2023-03-17T17:35:32.509Z,42.28
2023-03-17T17:38:00.827Z,42.75
2023-03-17T17:40:29.099Z,43.03
2023-03-17T17:42:58.095Z,43.30
2023-03-17T17:45:26.299Z,43.45
2023-03-17T17:47:54.035Z,43.63
2023-03-17T17:50:21.700Z,44.02
2023-03-17T17:52:49.462Z,44.23
2023-03-17T17:55:17.222Z,44.23
2023-03-17T17:57:44.988Z,44.60
2023-03-17T18:00:12.750Z,44.66
2023-03-17T18:02:40.520Z,44.76
2023-03-17T18:05:09.195Z,45.11
2023-03-17T18:07:36.872Z,45.31
2023-03-17T18:10:04.623Z,45.36
2023-03-17T18:12:32.284Z,45.82
2023-03-17T18:15:00.056Z,45.82
2023-03-17T18:17:28.247Z,46.28
2023-03-17T18:19:57.406Z,46.14
2023-03-17T18:22:25.183Z,46.28
2023-03-17T18:24:53.459Z,46.41
2023-03-17T18:27:21.530Z,46.75
2023-03-17T18:29:49.294Z,46.89
2023-03-17T18:32:16.959Z,46.84
2023-03-17T18:34:44.826Z,47.36
2023-03-17T18:37:12.691Z,47.14
2023-03-17T18:39:41.165Z,47.24
2023-03-17T18:42:08.839Z,47.53
2023-03-17T18:44:36.554Z,47.54
2023-03-17T18:47:04.257Z,47.57
2023-03-17T18:49:32.028Z,47.78
2023-03-17T18:51:59.994Z,48.08
2023-03-17T18:54:27.866Z,48.19
2023-03-17T18:56:56.029Z,48.36
2023-03-17T18:59:23.896Z,48.27
2023-03-17T19:01:51.564Z,48.58
2023-03-17T19:04:19.321Z,48.67
2023-03-17T19:06:47.192Z,48.74
2023-03-17T19:09:14.957Z,48.94
2023-03-17T19:11:43.124Z,48.86
2023-03-17T19:14:12.120Z,49.08
2023-03-17T19:16:40.444Z,49.22
2023-03-17T19:19:08.269Z,49.25
2023-03-17T19:21:36.022Z,49.43
2023-03-17T19:24:05.127Z,49.43
2023-03-17T19:26:33.808Z,49.54
2023-03-17T19:29:02.329Z,49.44
2023-03-17T19:31:30.357Z,49.63
2023-03-17T19:33:58.016Z,49.73
2023-03-17T19:36:26.292Z,49.83
2023-03-17T19:38:54.058Z,49.80
2023-03-17T19:41:21.824Z,49.75
2023-03-17T19:43:49.484Z,50.00
2023-03-17T19:46:17.613Z,50.04
2023-03-17T19:48:45.731Z,49.99
2023-03-17T19:51:13.619Z,49.99
2023-03-17T19:53:41.568Z,50.13
2023-03-17T19:56:11.179Z,50.10
2023-03-17T19:58:39.251Z,50.03
2023-03-17T20:01:07.783Z,50.07
2023-03-17T20:03:35.693Z,50.18
2023-03-17T20:06:06.338Z,50.05
2023-03-17T20:08:34.088Z,50.17
2023-03-17T20:11:02.261Z,50.17
2023-03-17T20:13:29.926Z,50.25
2023-03-17T20:15:57.808Z,50.02
2023-03-17T20:18:25.870Z,50.08
2023-03-17T20:20:53.642Z,50.19
2023-03-17T20:23:21.901Z,50.06
2023-03-17T20:25:49.869Z,50.30
2023-03-17T20:28:17.745Z,50.24
2023-03-17T20:30:45.525Z,50.25
2023-03-17T20:33:13.366Z,50.32
2023-03-17T20:35:41.441Z,50.12
2023-03-17T20:38:09.305Z,50.35
2023-03-17T20:40:36.966Z,50.46
2023-03-17T20:43:04.630Z,50.39
2023-03-17T20:45:32.698Z,50.51
2023-03-17T20:48:01.079Z,50.55
2023-03-17T20:50:31.441Z,50.61
2023-03-17T20:52:59.371Z,50.46
2023-03-17T20:55:27.034Z,50.68
2023-03-17T20:57:54.806Z,50.69
2023-03-17T21:00:22.561Z,50.60
2023-03-17T21:02:50.895Z,50.86
2023-03-17T21:05:19.935Z,50.86
2023-03-17T21:07:48.107Z,50.97
2023-03-17T21:10:15.880Z,50.88
2023-03-17T21:12:44.286Z,51.03
2023-03-17T21:15:16.082Z,51.14
2023-03-17T21:17:51.224Z,50.96
2023-03-17T21:20:23.942Z,51.11
2023-03-17T21:22:52.947Z,51.30
2023-03-17T21:25:20.679Z,51.10
2023-03-17T21:27:49.160Z,51.13
2023-03-17T21:30:16.825Z,51.25
2023-03-17T21:32:44.550Z,51.39
2023-03-17T21:35:12.451Z,51.87
2023-03-17T21:37:40.220Z,51.63
2023-03-17T21:40:08.193Z,51.43
2023-03-17T21:42:35.947Z,51.52
2023-03-17T21:45:03.615Z,51.62
2023-03-17T21:47:31.475Z,51.76
2023-03-17T21:49:59.241Z,51.85
2023-03-17T21:52:27.208Z,51.90
2023-03-17T21:54:54.978Z,51.81
2023-03-17T21:57:23.048Z,51.66
2023-03-17T21:59:51.012Z,51.95
2023-03-17T22:02:18.888Z,52.14
2023-03-17T22:04:47.260Z,51.84
2023-03-17T22:07:14.920Z,51.99
2023-03-17T22:09:42.694Z,51.80
2023-03-17T22:12:10.450Z,52.13
2023-03-17T22:14:38.212Z,52.03
2023-03-17T22:17:05.980Z,52.06
2023-03-17T22:19:33.844Z,52.15
2023-03-17T22:22:02.531Z,51.99
2023-03-17T22:24:31.831Z,51.93
2023-03-17T22:26:59.592Z,52.15
2023-03-17T22:29:27.260Z,52.24
2023-03-17T22:31:55.071Z,52.27
2023-03-17T22:34:23.705Z,52.00
2023-03-17T22:36:51.597Z,52.29
2023-03-17T22:39:19.338Z,52.10
2023-03-17T22:41:47.107Z,52.39
2023-03-17T22:44:14.765Z,52.33
2023-03-17T22:46:42.527Z,52.66
2023-03-17T22:49:10.296Z,52.64
2023-03-17T22:51:38.365Z,52.54
2023-03-17T22:54:06.742Z,52.61
2023-03-17T22:56:34.410Z,52.37
2023-03-17T22:59:02.199Z,52.37
2023-03-17T23:01:31.968Z,52.27
2023-03-17T23:03:59.790Z,52.48
2023-03-17T23:06:27.448Z,52.68
2023-03-17T23:08:55.172Z,52.37
2023-03-17T23:11:23.348Z,52.52
2023-03-17T23:13:51.632Z,52.48
2023-03-17T23:16:20.833Z,52.54
2023-03-17T23:18:49.091Z,52.79
2023-03-17T23:21:17.371Z,52.82
2023-03-17T23:23:45.446Z,52.69
2023-03-17T23:26:13.416Z,52.82
2023-03-17T23:28:41.171Z,53.01
2023-03-17T23:31:09.273Z,52.70
2023-03-17T23:33:37.521Z,52.92
2023-03-17T23:36:05.408Z,52.91
2023-03-17T23:38:34.596Z,52.97
2023-03-17T23:41:02.959Z,53.14
2023-03-17T23:43:31.033Z,53.09
2023-03-17T23:45:59.870Z,53.44
2023-03-17T23:48:27.682Z,53.14
2023-03-17T23:50:55.551Z,53.63
2023-03-17T23:53:23.620Z,53.34
2023-03-17T23:55:51.794Z,53.41
2023-03-17T23:58:19.661Z,53.32
